PWSweather.com
Personal Weather Stations
Station Observations
WH6KOWX
Next To Mccormick Park, St Helens, OR 97051-2144

Next To Mccormick ParkSt Helens, OR 97051-2144

Lat: 45.85439, Lon: -122.81898

Elevation: 79

Station Type: DAVIS Vantage Pro2 PLUS (6163)

http://www.wh6ko.net/wxhome.html

Latest ConditionsUpdated 8:20:00 AM PDT Monday, Sep 26, 2016
Currently Today's Max Today's Min Today's Average
Temperature 59.0°F15.0°C 64.7°F18.2°C 56.8°F13.8°C 61.0°F16.1°C
Dew Point 52.5°F11.4°C 54.7°F12.6°C 51.1°F10.6°C 52.6°F11.4°C
Winds Calm Calm 1.0 mph NNW1.6 kmh NNW - 0.1 mph 0.2 kmh
Wind Gusts -- 4.0 mph6.4 kmh - -
Humidity 79% 82% 69% 74%
Pressure 30.02 in1016.6 mb 30.09 in1019.0 mb 30.02 in1016.6 mb -
Hour Temp Dew Point Humidity Winds Wind Gusts Pressure Precip Precip Rate Daily Precip Total
08:20 AM 59.0°F15.0°C 52.5°F11.4°C 79% Calm Calm -- 30.02 in1016.6 mb 0.00 in0.0 mm 0.00 in0.0 mm 0.00 in0.0 mm
08:00 AM 57.7°F14.3°C 51.9°F11.1°C 81% Calm Calm -- 30.02 in1016.6 mb 0.00 in0.0 mm 0.00 in0.0 mm 0.00 in0.0 mm
07:40 AM 56.8°F13.8°C 51.4°F10.8°C 82% Calm Calm -- 30.02 in1016.6 mb 0.00 in0.0 mm 0.00 in0.0 mm 0.00 in0.0 mm
07:20 AM 56.9°F13.8°C 51.1°F10.6°C 81% Calm Calm -- 30.02 in1016.6 mb 0.00 in0.0 mm 0.00 in0.0 mm 0.00 in0.0 mm
07:00 AM 57.7°F14.3°C 51.6°F10.9°C 80% Calm Calm -- 30.02 in1016.6 mb 0.00 in0.0 mm 0.00 in0.0 mm 0.00 in0.0 mm
06:40 AM 59.0°F15.0°C 52.2°F11.2°C 78% Calm Calm -- 30.03 in1016.9 mb 0.00 in0.0 mm 0.00 in0.0 mm 0.00 in0.0 mm
06:20 AM 59.8°F15.4°C 51.9°F11.1°C 75% Calm Calm 2.0 mph3.2 kmh 30.03 in1016.9 mb 0.00 in0.0 mm 0.00 in0.0 mm 0.00 in0.0 mm
06:00 AM 59.0°F15.0°C 51.5°F10.8°C 76% Calm Calm -- 30.03 in1016.9 mb 0.00 in0.0 mm 0.00 in0.0 mm 0.00 in0.0 mm
05:40 AM 58.8°F14.9°C 51.6°F10.9°C 77% Calm Calm -- 30.03 in1016.9 mb 0.00 in0.0 mm 0.00 in0.0 mm 0.00 in0.0 mm
05:20 AM 59.0°F15.0°C 51.8°F11.0°C 77% Calm Calm -- 30.02 in1016.6 mb 0.00 in0.0 mm 0.00 in0.0 mm 0.00 in0.0 mm
05:00 AM 59.5°F15.3°C 52.3°F11.3°C 77% Calm Calm -- 30.02 in1016.6 mb 0.00 in0.0 mm 0.00 in0.0 mm 0.00 in0.0 mm
04:40 AM 61.3°F16.3°C 51.8°F11.0°C 71% Calm Calm 3.0 mph4.8 kmh 30.03 in1016.9 mb 0.00 in0.0 mm 0.00 in0.0 mm 0.00 in0.0 mm
04:20 AM 61.4°F16.3°C 51.9°F11.1°C 71% 1.0 mph NNW1.6 kmh NNW 3.0 mph4.8 kmh 30.04 in1017.3 mb 0.00 in0.0 mm 0.00 in0.0 mm 0.00 in0.0 mm
04:00 AM 62.0°F16.7°C 52.1°F11.2°C 70% 1.0 mph NNW1.6 kmh NNW 2.0 mph3.2 kmh 30.04 in1017.3 mb 0.00 in0.0 mm 0.00 in0.0 mm 0.00 in0.0 mm
03:40 AM 62.3°F16.8°C 52.4°F11.3°C 70% Calm Calm 1.0 mph1.6 kmh 30.04 in1017.3 mb 0.00 in0.0 mm 0.00 in0.0 mm 0.00 in0.0 mm
03:20 AM 62.3°F16.8°C 52.4°F11.3°C 70% Calm Calm 4.0 mph6.4 kmh 30.05 in1017.6 mb 0.00 in0.0 mm 0.00 in0.0 mm 0.00 in0.0 mm
03:00 AM 62.7°F17.1°C 52.8°F11.6°C 70% Calm Calm -- 30.05 in1017.6 mb 0.00 in0.0 mm 0.00 in0.0 mm 0.00 in0.0 mm
02:40 AM 63.1°F17.3°C 53.2°F11.8°C 70% Calm Calm 4.0 mph6.4 kmh 30.06 in1017.9 mb 0.00 in0.0 mm 0.00 in0.0 mm 0.00 in0.0 mm
02:20 AM 63.0°F17.2°C 53.1°F11.7°C 70% Calm Calm 4.0 mph6.4 kmh 30.07 in1018.3 mb 0.00 in0.0 mm 0.00 in0.0 mm 0.00 in0.0 mm
02:00 AM 62.1°F16.7°C 53.4°F11.9°C 73% Calm Calm -- 30.07 in1018.3 mb 0.00 in0.0 mm 0.00 in0.0 mm 0.00 in0.0 mm
01:40 AM 63.2°F17.3°C 53.3°F11.8°C 70% Calm Calm 1.0 mph1.6 kmh 30.07 in1018.3 mb 0.00 in0.0 mm 0.00 in0.0 mm 0.00 in0.0 mm
01:20 AM 63.6°F17.6°C 53.7°F12.1°C 70% Calm Calm 2.0 mph3.2 kmh 30.08 in1018.6 mb 0.00 in0.0 mm 0.00 in0.0 mm 0.00 in0.0 mm
01:00 AM 63.2°F17.3°C 53.7°F12.1°C 71% Calm Calm -- 30.08 in1018.6 mb 0.00 in0.0 mm 0.00 in0.0 mm 0.00 in0.0 mm
12:40 AM 64.5°F18.1°C 54.1°F12.3°C 69% Calm Calm 1.0 mph1.6 kmh 30.09 in1019.0 mb 0.00 in0.0 mm 0.00 in0.0 mm 0.00 in0.0 mm
12:20 AM 64.4°F18.0°C 54.4°F12.4°C 70% Calm Calm 1.0 mph1.6 kmh 30.09 in1019.0 mb 0.00 in0.0 mm 0.00 in0.0 mm 0.00 in0.0 mm
12:00 AM 64.7°F18.2°C 54.7°F12.6°C 70% Calm Calm -- 30.09 in1019.0 mb 0.00 in0.0 mm 0.00 in0.0 mm 0.00 in0.0 mm